Peletier, North Carolina
Current Conditions -  °F | °C
As of 4:57 AM on Saturday 22 Nov 2014 (Local Time) from KNJM Reporting Station
Clear Clear  
Wind Chill: 31°   Ceiling: Unl
Heat Index: 31°   Visibility: 10mi
Dew Point: 23°   Wind: 3mph
Humidity: 72%   Direction: 360°N
Pressure: 30.55"   Gusts: NA
Location:  34.7017°N, 77.1399°W
Report Text: KNJM 220957Z AUTO 36003KT 10SM CLR M01/M05 A3055 RMK AO2 SLP349 T10061050
Loading
Personal Weather Stations






























Interactive Weather Map New forecast layout! Learn more

10-Day Weather Forecast

Advertisements
Track Severe Weather on mobile